Terminal Aerodrome Forecast
Issued by NWS

Home | Current Version | Previous Version | Text Only | Print | Product List | Glossary On
Versions: 1 2 3 4 5 6 7 8 9 10 11 12 13 14 15 16 17
000
FTUS43 KABR 281402 AAB
TAFMBG
TAF AMD
KMBG 281402Z 2814/2912 30009KT P6SM SKC
     FM281600 31014G21KT P6SM SCT100
     FM290200 33015KT P6SM SCT200
     FM290500 33008KT P6SM FEW200=

USA.gov is the U.S. government's official web portal to all federal, state and local government web resources and services.